San Francisco, CA

8:11 AM PDT on September 23, 2014 (GMT -0700)
San Francisco International | Change Station
CLOSE
Current Station
Airport
Location: San Francisco,
Elevation: 16 ft
Nearby Weather Stations

Elev 16 ft 37.62 °N, 122.37 °W | Updated 15 minutes ago

Mostly Cloudy
Mostly Cloudy
65 °F
Feels Like 65 °F
N
8
Wind Variable Wind from NW

Today
High -- | Low -- °F
--% Chance of Precip.
Yesterday
High -- | Low -- °F
Precip. -- in
6:58 AM 7:04 PM
Waning Crescent, 0% visible
Pressure 30.00 in
Visibility 10.0 miles
Clouds Few 1000 ft
Mostly Cloudy 1300 ft
Dew Point 60 °F
Humidity 84%
Rainfall 0.00 in
Snow Depth 0 in , 0 in , 0 in
UV 0 out of 12
Pollen 3.80 out of 12
PM2.5 Good
Flu Activity Not available.
METAR KSFO 231456Z 32007KT 10SM FEW010 BKN013 18/16 A3000 RMK AO2 SLP158 T01830156 53007 $

More Conditions Fewer Conditions

Pressure 30.00 in
Visibility 10.0 miles
Clouds Few 1000 ft
Mostly Cloudy 1300 ft
Dew Point 60 °F
Humidity 84%
Rainfall 0.00 in
Snow Depth 0 in , 0 in , 0 in
UV 0 out of 12
Pollen 3.80 out of 12
PM2.5 Good
Flu Activity Not available.
METAR KSFO 231456Z 32007KT 10SM FEW010 BKN013 18/16 A3000 RMK AO2 SLP158 T01830156 53007 $

More Conditions Fewer Conditions

10-Day Weather Forecast

Almanac

Astronomy

Sep. 23, 2014 Rise Set
Actual Time 6:58 AM PDT 7:04 PM PDT
Civil Twilight 6:32 AM PDT 7:30 PM PDT
Nautical Twilight 6:01 AM PDT 8:01 PM PDT
Astronomical Twilight 5:30 AM PDT 8:32 PM PDT
Moon 6:27 AM PDT 6:46 PM PDT
Length of Visible Light 12h 58m
Length of Day
12h 06m
Tomorrow will be 2m 24s shorter.
Waning Crescent, 0% of the Moon is Illuminated
Today
Waning Crescent
Sep 24
New
Oct 1
First Quarter
Oct 8
Full
Oct 15
Last Quarter

Today's Extremes

State Highs State Lows

Community

WunderPhotos

Upload Photos

1,755,716 photos uploaded!

Nearby

Air Quality

  Air Quality AQ Index Pollutant
Yesterday Good
OZONE
Yesterday Good
PM2.5
Current Good
PM2.5
Tuesday Good
PM2.5
Wednesday Good
PM2.5
Thursday Good
OZONE
Friday Good
OZONE
Saturday Good
OZONE

Snow Depth

Station Depth Elevation
Adin Mountain 0 in 6200 ft
Rubicon #2 0 in 7500 ft
Fallen Leaf 0 in 6300 ft
Burnside Lake 1 in 8139 ft
Squaw Valley 0 in 8200 ft

Earthquake Activity

City Distance Mag. Time & Date
Yountville, California 49 miles 2.6 1:17 PM PDT
2014-09-21
Minimum magnitude displayed is 2.5.

Coastal Water Temperatures

Place Temperature
No Stations Reporting

Nearby Weather Stations